Time;durP1;ratioP1;P1;durP2;ratioP2;P2;SDS_P1;SDS_P2;PMS_P1;PMS_P2;Temp;Humidity;BMP_temperature;BMP_pressure;BME280_temperature;BME280_humidity;BME280_pressure;Samples;Min_cycle;Max_cycle;Signal;HPM_P1;HPM_P2
2021/03/28 00:00:54;;;;;;;9.75;4.88;;;7.10;99.90;;;;;;5088048;28;20508;-80
2021/03/28 00:03:42;;;;;;;7.97;4.20;;;7.00;99.90;;;;;;5082843;28;20085;-80
2021/03/28 00:06:19;;;;;;;8.23;4.03;;;6.90;99.90;;;;;;5009813;28;20034;-80
2021/03/28 00:09:06;;;;;;;8.13;3.97;;;7.00;99.90;;;;;;5009624;28;20446;-80
2021/03/28 00:11:35;;;;;;;9.25;3.97;;;7.60;99.90;;;;;;5010054;28;20407;-80
2021/03/28 00:14:01;;;;;;;7.22;4.40;;;6.90;99.90;;;;;;5009869;28;20483;-80
2021/03/28 00:16:43;;;;;;;10.48;4.10;;;6.90;99.90;;;;;;5009918;28;20022;-80
2021/03/28 00:19:20;;;;;;;7.75;4.18;;;6.80;99.90;;;;;;5012432;28;20406;-80
2021/03/28 00:21:53;;;;;;;6.30;3.70;;;6.70;99.90;;;;;;5013740;28;20178;-80
2021/03/28 00:24:40;;;;;;;8.05;3.50;;;6.70;99.90;;;;;;5013732;28;20038;-80
2021/03/28 00:27:40;;;;;;;8.45;3.47;;;6.70;99.90;;;;;;5032171;28;20509;-80
2021/03/28 00:30:22;;;;;;;8.80;3.75;;;6.80;99.90;;;;;;5009805;28;20029;-80
2021/03/28 00:32:58;;;;;;;4.85;3.13;;;6.90;99.90;;;;;;5033316;28;20026;-80
2021/03/28 00:35:30;;;;;;;7.88;3.47;;;6.70;99.90;;;;;;5033022;28;20091;-80
2021/03/28 00:38:18;;;;;;;11.77;4.28;;;6.50;99.90;;;;;;5033305;28;20501;-80
2021/03/28 00:40:44;;;;;;;9.30;3.97;;;6.90;99.90;;;;;;5033147;28;20094;-80
2021/03/28 00:43:22;;;;;;;9.00;3.67;;;6.40;99.90;;;;;;5054359;28;20032;-80
2021/03/28 00:45:50;;;;;;;7.18;3.65;;;6.50;99.90;;;;;;5084694;28;20444;-80
2021/03/28 00:48:20;;;;;;;10.40;4.10;;;6.50;99.90;;;;;;5081987;28;20028;-80
2021/03/28 00:50:56;;;;;;;9.50;4.40;;;6.50;99.90;;;;;;5091777;28;20024;-80
2021/03/28 00:53:43;;;;;;;10.30;4.10;;;6.40;99.90;;;;;;5081077;28;20443;-80
2021/03/28 00:56:18;;;;;;;8.65;4.03;;;6.60;99.90;;;;;;5082105;28;20480;-80
2021/03/28 00:58:50;;;;;;;8.35;4.63;;;6.60;99.90;;;;;;5091760;28;20388;-80
2021/03/28 01:01:29;;;;;;;9.50;4.57;;;6.70;99.90;;;;;;5079651;28;20024;-80
2021/03/28 01:04:34;;;;;;;8.60;4.32;;;6.50;99.90;;;;;;5084580;28;20017;-80
2021/03/28 01:07:29;;;;;;;8.85;4.50;;;6.20;99.90;;;;;;5108737;28;20444;-80
2021/03/28 01:10:31;;;;;;;8.55;4.30;;;6.10;99.90;;;;;;5095893;28;20020;-80
2021/03/28 01:13:17;;;;;;;7.78;4.10;;;6.00;99.90;;;;;;5094884;28;20047;-80
2021/03/28 01:16:20;;;;;;;10.07;4.72;;;6.10;99.90;;;;;;5091385;28;20063;-79
2021/03/28 01:19:20;;;;;;;8.77;4.85;;;6.10;99.90;;;;;;5094151;28;20024;-79
2021/03/28 01:21:54;;;;;;;10.70;4.80;;;5.90;99.90;;;;;;5084054;28;20067;-79
2021/03/28 01:24:50;;;;;;;9.35;4.55;;;6.00;99.90;;;;;;5087462;28;20032;-79
2021/03/28 01:27:24;;;;;;;11.13;4.75;;;5.80;99.90;;;;;;5078251;28;20024;-79
2021/03/28 01:29:58;;;;;;;9.32;4.55;;;5.90;99.90;;;;;;5092096;28;20031;-79
2021/03/28 01:32:36;;;;;;;8.90;4.90;;;5.90;99.90;;;;;;5092998;28;20024;-79
2021/03/28 01:35:11;;;;;;;9.90;4.88;;;5.90;99.90;;;;;;5076398;28;20032;-79
2021/03/28 01:38:00;;;;;;;9.32;4.18;;;6.30;99.90;;;;;;5094188;28;20073;-79
2021/03/28 01:40:44;;;;;;;9.35;4.53;;;5.70;99.90;;;;;;5081142;28;20051;-79
2021/03/28 01:43:28;;;;;;;8.55;4.03;;;6.00;99.90;;;;;;5093113;28;20074;-79
2021/03/28 01:46:12;;;;;;;7.15;4.10;;;5.60;99.90;;;;;;5084004;28;20032;-79
2021/03/28 01:48:49;;;;;;;8.45;4.40;;;5.50;99.90;;;;;;5089006;28;20024;-79
2021/03/28 01:51:40;;;;;;;9.60;4.43;;;5.40;99.90;;;;;;5077440;28;20039;-79
2021/03/28 01:54:20;;;;;;;6.82;4.20;;;5.30;99.90;;;;;;5083952;28;20489;-79
2021/03/28 01:57:12;;;;;;;11.40;4.75;;;5.60;99.90;;;;;;5089843;28;20024;-79
2021/03/28 02:00:07;;;;;;;11.85;4.80;;;5.70;99.90;;;;;;5079958;28;20396;-79
2021/03/28 02:02:49;;;;;;;6.70;3.83;;;5.30;99.90;;;;;;5077931;28;20120;-79
2021/03/28 02:05:30;;;;;;;9.00;3.95;;;4.90;99.90;;;;;;5092981;28;20020;-79
2021/03/28 02:08:01;;;;;;;8.68;4.07;;;5.00;99.90;;;;;;5085495;28;20115;-79
2021/03/28 02:10:55;;;;;;;8.43;4.00;;;5.00;99.90;;;;;;5089661;28;20358;-79
2021/03/28 02:13:39;;;;;;;8.23;3.88;;;5.00;99.90;;;;;;5090565;28;20048;-79
2021/03/28 02:16:18;;;;;;;8.02;4.00;;;5.10;99.90;;;;;;5095295;28;20099;-79
2021/03/28 02:19:05;;;;;;;8.05;3.67;;;5.10;99.90;;;;;;5073834;28;20411;-79
2021/03/28 02:21:55;;;;;;;8.95;3.67;;;5.20;99.90;;;;;;5084082;28;20043;-79
2021/03/28 02:24:47;;;;;;;6.45;3.30;;;5.30;99.90;;;;;;5085089;28;20036;-79
2021/03/28 02:27:43;;;;;;;7.60;3.88;;;5.40;99.90;;;;;;5076592;28;20032;-79
2021/03/28 02:30:15;;;;;;;8.57;3.47;;;5.40;99.90;;;;;;5092724;28;20057;-79
2021/03/28 02:32:56;;;;;;;10.27;3.90;;;5.80;99.90;;;;;;5093485;28;20020;-79
2021/03/28 02:35:33;;;;;;;10.60;3.78;;;5.70;99.90;;;;;;5076638;28;20103;-79
2021/03/28 02:38:15;;;;;;;6.70;3.67;;;5.30;99.90;;;;;;5083762;28;20451;-79
2021/03/28 02:41:03;;;;;;;6.80;3.92;;;5.60;99.90;;;;;;5087210;28;20407;-79
2021/03/28 02:43:52;;;;;;;10.02;3.47;;;5.20;99.90;;;;;;5077246;28;20093;-79
2021/03/28 02:46:45;;;;;;;10.48;3.85;;;5.30;99.90;;;;;;5082292;28;20038;-79
2021/03/28 02:49:29;;;;;;;8.35;3.40;;;5.20;99.90;;;;;;5090761;28;20028;-79
2021/03/28 02:52:15;;;;;;;8.23;3.80;;;4.90;99.90;;;;;;5093049;28;20043;-79
2021/03/28 02:54:46;;;;;;;5.32;3.45;;;4.90;99.90;;;;;;5079230;28;20023;-79
2021/03/28 02:57:23;;;;;;;8.48;3.78;;;5.20;99.90;;;;;;5089385;28;20035;-79
2021/03/28 02:59:55;;;;;;;8.23;4.10;;;5.00;99.90;;;;;;5079065;28;20030;-79
2021/03/28 03:02:31;;;;;;;7.15;3.10;;;5.30;99.90;;;;;;5081334;28;20029;-79
2021/03/28 03:05:16;;;;;;;7.45;3.70;;;4.80;99.90;;;;;;5087627;28;20020;-79
2021/03/28 03:07:44;;;;;;;6.90;3.78;;;5.40;99.90;;;;;;5087258;28;20503;-79
2021/03/28 03:10:54;;;;;;;6.22;3.55;;;4.80;99.90;;;;;;5081969;28;20020;-79
2021/03/28 03:13:44;;;;;;;9.60;3.90;;;4.70;99.90;;;;;;5089818;28;20027;-79
2021/03/28 03:16:31;;;;;;;5.35;3.75;;;4.70;99.90;;;;;;5081654;28;20043;-79
2021/03/28 03:19:15;;;;;;;8.70;4.10;;;4.70;99.90;;;;;;5076843;28;20396;-79
2021/03/28 03:22:08;;;;;;;7.18;3.72;;;4.60;99.90;;;;;;5088651;28;20043;-79
2021/03/28 03:24:58;;;;;;;7.85;3.72;;;4.70;99.90;;;;;;5080379;28;20028;-79
2021/03/28 03:28:00;;;;;;;9.70;4.28;;;4.70;99.90;;;;;;5088480;28;20388;-79
2021/03/28 03:30:50;;;;;;;10.73;3.95;;;4.70;99.90;;;;;;5083279;28;20026;-79
2021/03/28 03:33:44;;;;;;;6.93;3.75;;;4.60;99.90;;;;;;5075516;28;20393;-79
2021/03/28 03:36:17;;;;;;;7.10;3.83;;;4.70;99.90;;;;;;5092229;28;20024;-79
2021/03/28 03:38:48;;;;;;;7.20;3.95;;;4.80;99.90;;;;;;5091049;28;20024;-79
2021/03/28 03:41:38;;;;;;;6.10;3.20;;;4.50;99.90;;;;;;5090956;28;20024;-79
2021/03/28 03:44:33;;;;;;;8.70;4.13;;;4.50;99.90;;;;;;5080158;28;20046;-79
2021/03/28 03:47:13;;;;;;;7.88;3.63;;;4.70;99.90;;;;;;5076700;28;20032;-79
2021/03/28 03:49:52;;;;;;;6.38;3.60;;;4.50;99.90;;;;;;5074964;28;20028;-79
2021/03/28 03:52:50;;;;;;;7.13;3.65;;;4.50;99.90;;;;;;5091067;28;20032;-79
2021/03/28 03:55:15;;;;;;;5.90;3.53;;;4.50;99.90;;;;;;5051695;28;20029;-79
2021/03/28 03:57:46;;;;;;;7.32;3.47;;;5.00;99.90;;;;;;5053857;28;20489;-79
2021/03/28 04:00:18;;;;;;;5.85;3.83;;;4.90;99.90;;;;;;5061191;28;20497;-79
2021/03/28 04:03:01;;;;;;;8.68;3.70;;;4.90;99.90;;;;;;5049897;28;20424;-79
2021/03/28 04:05:48;;;;;;;8.48;3.78;;;4.70;99.90;;;;;;5066087;28;20574;-79
2021/03/28 04:08:25;;;;;;;7.35;3.53;;;4.50;99.90;;;;;;5058115;28;20032;-79
2021/03/28 04:11:08;;;;;;;7.00;3.13;;;4.40;99.90;;;;;;5055840;28;20116;-79
2021/03/28 04:13:42;;;;;;;4.85;3.20;;;4.30;99.90;;;;;;5051721;28;20029;-79
2021/03/28 04:16:08;;;;;;;6.28;2.97;;;4.30;99.90;;;;;;5069473;28;20020;-79
2021/03/28 04:19:01;;;;;;;7.95;3.60;;;4.30;99.90;;;;;;5069975;28;20051;-79
2021/03/28 04:22:11;;;;;;;5.88;3.13;;;4.10;99.90;;;;;;5067932;28;20045;-79
2021/03/28 04:24:39;;;;;;;8.70;3.90;;;4.10;99.90;;;;;;5075625;28;20482;-79
2021/03/28 04:27:31;;;;;;;7.07;3.70;;;4.10;99.90;;;;;;5071448;28;20032;-79
2021/03/28 04:29:57;;;;;;;8.65;3.40;;;4.00;99.90;;;;;;5070205;28;20397;-79
2021/03/28 04:32:47;;;;;;;6.38;3.75;;;4.10;99.90;;;;;;5081108;28;20039;-79
2021/03/28 04:35:24;;;;;;;7.25;3.90;;;4.10;99.90;;;;;;5092506;28;20048;-79
2021/03/28 04:37:58;;;;;;;6.70;3.95;;;4.10;99.90;;;;;;5082688;28;20035;-79
2021/03/28 04:40:56;;;;;;;6.88;4.00;;;4.30;99.90;;;;;;5085542;28;20055;-79
2021/03/28 04:43:29;;;;;;;7.57;4.00;;;4.20;99.90;;;;;;5089370;28;20031;-79
2021/03/28 04:46:33;;;;;;;5.97;3.47;;;4.10;99.90;;;;;;5092424;28;20024;-79
2021/03/28 04:49:13;;;;;;;4.97;3.30;;;4.60;99.90;;;;;;5091839;28;20059;-79
2021/03/28 04:52:03;;;;;;;8.27;3.67;;;4.30;99.90;;;;;;5091687;28;20488;-79
2021/03/28 04:54:47;;;;;;;11.23;4.65;;;4.40;99.90;;;;;;5102331;28;20446;-79
2021/03/28 04:57:48;;;;;;;7.47;3.70;;;4.10;99.90;;;;;;5092779;28;20035;-79
2021/03/28 05:00:44;;;;;;;9.15;3.72;;;4.00;99.90;;;;;;5067759;28;20043;-79
2021/03/28 05:03:49;;;;;;;9.35;3.78;;;4.20;99.90;;;;;;5101145;28;20069;-79
2021/03/28 05:06:36;;;;;;;7.20;3.33;;;4.20;99.90;;;;;;5097177;28;20030;-79
2021/03/28 05:09:07;;;;;;;8.57;3.78;;;4.00;99.90;;;;;;5098680;28;20046;-79
2021/03/28 05:11:45;;;;;;;7.18;3.55;;;3.80;99.90;;;;;;5077427;28;20113;-79
2021/03/28 05:14:31;;;;;;;8.40;3.63;;;3.80;99.90;;;;;;5095936;28;20056;-79
2021/03/28 05:17:09;;;;;;;8.02;3.65;;;3.80;99.90;;;;;;5096144;28;20016;-79
2021/03/28 05:20:02;;;;;;;6.15;3.53;;;3.80;99.90;;;;;;5095200;28;20102;-79
2021/03/28 05:22:30;;;;;;;9.93;3.78;;;3.70;99.90;;;;;;5083591;28;20115;-79
2021/03/28 05:25:35;;;;;;;6.50;3.50;;;3.70;99.90;;;;;;5094401;28;20468;-79
2021/03/28 05:28:31;;;;;;;6.32;3.25;;;3.70;99.90;;;;;;5078655;28;20043;-79
2021/03/28 05:31:32;;;;;;;8.82;3.70;;;3.80;99.90;;;;;;5081952;28;20021;-79
2021/03/28 05:34:19;;;;;;;6.93;3.45;;;3.90;99.90;;;;;;5079202;28;20046;-79
2021/03/28 05:37:15;;;;;;;6.72;4.10;;;3.90;99.90;;;;;;5105044;28;20099;-79
2021/03/28 05:40:00;;;;;;;7.40;4.35;;;3.90;99.90;;;;;;5093739;28;20028;-79
2021/03/28 05:43:06;;;;;;;10.40;4.20;;;4.10;99.90;;;;;;5093879;28;20090;-79
2021/03/28 05:45:42;;;;;;;8.93;5.28;;;3.90;99.90;;;;;;5098757;28;20044;-79
2021/03/28 05:48:35;;;;;;;10.68;5.82;;;4.00;99.90;;;;;;5112195;28;20035;-79
2021/03/28 05:51:12;;;;;;;9.48;4.38;;;3.90;99.90;;;;;;5093126;28;20027;-79
2021/03/28 05:54:11;;;;;;;5.70;3.70;;;4.20;99.90;;;;;;5093026;28;20054;-79
2021/03/28 05:57:28;;;;;;;6.05;3.42;;;4.00;99.90;;;;;;5093546;28;20115;-79
2021/03/28 06:00:24;;;;;;;8.20;3.58;;;4.00;99.90;;;;;;5093379;28;20024;-79
2021/03/28 06:03:27;;;;;;;6.10;3.33;;;4.00;99.90;;;;;;5097864;28;20032;-79
2021/03/28 06:06:31;;;;;;;7.45;3.58;;;4.00;99.90;;;;;;5093568;28;20032;-79
2021/03/28 06:09:28;;;;;;;6.13;3.95;;;4.20;99.90;;;;;;5091837;28;20036;-79
2021/03/28 06:12:12;;;;;;;9.23;3.80;;;4.20;99.90;;;;;;5093455;28;20031;-79
2021/03/28 06:15:01;;;;;;;8.07;3.70;;;4.80;99.90;;;;;;5094104;28;20024;-79
2021/03/28 06:17:47;;;;;;;8.10;3.58;;;4.30;99.90;;;;;;5067812;28;20259;-79
2021/03/28 06:20:53;;;;;;;7.25;3.60;;;4.30;99.90;;;;;;5062016;28;20137;-79
2021/03/28 06:23:49;;;;;;;9.38;4.03;;;4.40;99.90;;;;;;5064423;28;20472;-79
2021/03/28 06:26:46;;;;;;;7.28;4.05;;;4.40;99.90;;;;;;5056284;28;20511;-82
2021/03/28 06:29:27;;;;;;;8.93;3.63;;;4.50;99.90;;;;;;5080798;28;20040;-80
2021/03/28 06:32:14;;;;;;;10.90;4.00;;;4.40;99.90;;;;;;5070627;28;20547;-79
2021/03/28 06:35:02;;;;;;;10.63;4.00;;;4.50;99.90;;;;;;5070774;28;20112;-79
2021/03/28 06:37:39;;;;;;;9.18;3.83;;;4.60;99.90;;;;;;5057052;28;20054;-80
2021/03/28 06:40:41;;;;;;;5.25;3.72;;;4.50;99.90;;;;;;5070381;28;20115;-80
2021/03/28 06:43:38;;;;;;;12.45;4.30;;;4.50;99.90;;;;;;5070480;28;20028;-80
2021/03/28 06:46:52;;;;;;;7.82;3.97;;;4.60;99.90;;;;;;5070308;28;20028;-80
2021/03/28 06:49:45;;;;;;;9.27;4.22;;;4.70;99.90;;;;;;4971793;28;20039;-80
2021/03/28 06:52:38;;;;;;;7.05;4.15;;;4.90;99.90;;;;;;4971419;28;20088;-80
2021/03/28 06:55:42;;;;;;;8.90;4.00;;;5.00;99.90;;;;;;5000629;28;20072;-80
2021/03/28 06:58:39;;;;;;;7.80;3.95;;;5.10;99.90;;;;;;5010493;28;20029;-80
2021/03/28 07:01:14;;;;;;;6.90;4.30;;;5.10;99.90;;;;;;5010349;28;20037;-80
2021/03/28 07:04:07;;;;;;;7.97;3.97;;;5.80;99.90;;;;;;5010661;28;20105;-80
2021/03/28 07:07:00;;;;;;;8.35;3.97;;;5.20;99.90;;;;;;5005270;28;20036;-80
2021/03/28 07:09:55;;;;;;;9.48;3.95;;;5.40;99.90;;;;;;5004569;28;20030;-80
2021/03/28 07:12:33;;;;;;;8.68;4.15;;;5.60;99.90;;;;;;5003721;28;20124;-80
2021/03/28 07:15:13;;;;;;;5.35;3.40;;;5.70;99.90;;;;;;5010111;28;20069;-80
2021/03/28 07:18:13;;;;;;;6.03;3.80;;;5.80;99.90;;;;;;5010437;28;20061;-80
2021/03/28 07:20:49;;;;;;;7.85;3.58;;;5.90;99.90;;;;;;5004445;28;20084;-80
2021/03/28 07:23:33;;;;;;;8.82;3.50;;;6.60;99.90;;;;;;5010318;28;20084;-80
2021/03/28 07:26:37;;;;;;;9.02;3.40;;;6.20;99.90;;;;;;5038448;28;20401;-80
2021/03/28 07:29:29;;;;;;;7.53;3.55;;;6.40;99.90;;;;;;5048541;28;20123;-80
2021/03/28 07:32:31;;;;;;;7.65;4.00;;;6.40;99.90;;;;;;5049493;28;20100;-80
2021/03/28 07:35:24;;;;;;;7.75;4.03;;;6.40;99.90;;;;;;5049206;28;20036;-80
2021/03/28 07:38:08;;;;;;;6.18;3.65;;;6.50;99.90;;;;;;5032899;28;20025;-80
2021/03/28 07:40:58;;;;;;;8.07;3.88;;;6.70;99.90;;;;;;5049729;28;20094;-80
2021/03/28 07:43:45;;;;;;;7.05;4.15;;;6.70;99.90;;;;;;5032917;28;20025;-80
2021/03/28 07:46:25;;;;;;;8.35;4.22;;;6.80;99.90;;;;;;5049343;28;20083;-80
2021/03/28 07:49:33;;;;;;;7.88;4.28;;;6.90;99.90;;;;;;5049148;28;20029;-80
2021/03/28 07:52:11;;;;;;;9.30;4.32;;;7.40;99.90;;;;;;4973398;28;20137;-80
2021/03/28 07:55:13;;;;;;;11.57;3.85;;;7.50;99.90;;;;;;4979155;28;20039;-80
2021/03/28 07:58:03;;;;;;;11.23;3.92;;;7.50;99.90;;;;;;4990165;28;20057;-80
2021/03/28 08:00:59;;;;;;;8.98;4.00;;;7.50;99.90;;;;;;4978401;28;20050;-80
2021/03/28 08:03:56;;;;;;;13.30;4.13;;;7.60;99.90;;;;;;4974461;28;20046;-80
2021/03/28 08:07:01;;;;;;;7.32;3.97;;;7.70;99.90;;;;;;5044826;28;20045;-80
2021/03/28 08:09:52;;;;;;;7.28;3.95;;;7.90;99.90;;;;;;5033701;28;20061;-80
2021/03/28 08:12:35;;;;;;;7.47;4.18;;;8.00;99.90;;;;;;5049316;28;20520;-80
2021/03/28 08:15:38;;;;;;;10.27;3.85;;;8.20;99.90;;;;;;5048898;28;20028;-80
2021/03/28 08:18:13;;;;;;;7.22;3.78;;;8.40;99.90;;;;;;5048937;28;20394;-80
2021/03/28 08:20:47;;;;;;;7.75;4.40;;;8.40;99.90;;;;;;5036085;28;20058;-80
2021/03/28 08:23:15;;;;;;;8.65;4.10;;;8.50;99.90;;;;;;5045987;28;20040;-80
2021/03/28 08:26:36;;;;;;;10.52;4.20;;;8.60;99.90;;;;;;5035033;28;20033;-80
2021/03/28 08:29:13;;;;;;;10.65;4.13;;;8.80;99.90;;;;;;5036636;28;20168;-80
2021/03/28 08:31:57;;;;;;;8.70;3.75;;;8.80;99.90;;;;;;5049282;28;20037;-80
2021/03/28 08:34:53;;;;;;;11.30;4.07;;;9.00;99.90;;;;;;5060618;28;20036;-80
2021/03/28 08:37:46;;;;;;;9.85;3.80;;;9.30;99.90;;;;;;5068735;28;20041;-80
2021/03/28 08:40:47;;;;;;;8.15;3.25;;;9.30;99.90;;;;;;5055413;28;20055;-80
2021/03/28 08:44:10;;;;;;;7.95;3.13;;;9.50;99.90;;;;;;5056199;28;20115;-80
2021/03/28 08:46:54;;;;;;;7.32;2.90;;;9.60;99.90;;;;;;4993612;28;20513;-80
2021/03/28 08:49:40;;;;;;;7.30;3.10;;;9.80;99.90;;;;;;4993072;28;20096;-80
2021/03/28 08:52:39;;;;;;;5.95;2.92;;;9.90;99.90;;;;;;4993461;28;20125;-80
2021/03/28 08:55:14;;;;;;;7.97;3.58;;;10.00;99.90;;;;;;4977668;28;20035;-80
2021/03/28 08:58:01;;;;;;;8.65;4.32;;;10.20;99.90;;;;;;4974618;28;20034;-80
2021/03/28 09:00:47;;;;;;;8.60;4.10;;;10.20;99.90;;;;;;4984816;28;20117;-80
2021/03/28 09:03:45;;;;;;;7.68;4.20;;;10.30;99.90;;;;;;5005103;28;20065;-80
2021/03/28 09:06:19;;;;;;;10.15;3.85;;;10.30;99.90;;;;;;4984724;28;20039;-80
2021/03/28 09:08:53;;;;;;;8.07;3.72;;;10.30;99.90;;;;;;4987093;28;20038;-80
2021/03/28 09:11:55;;;;;;;6.45;3.22;;;10.50;99.90;;;;;;4976907;28;20043;-80
2021/03/28 09:14:57;;;;;;;5.40;2.50;;;10.70;99.90;;;;;;4983343;28;20031;-80
2021/03/28 09:17:37;;;;;;;3.83;2.25;;;10.90;99.90;;;;;;5038890;28;20036;-80
2021/03/28 09:20:26;;;;;;;5.88;2.80;;;11.10;99.90;;;;;;5059934;28;20040;-80
2021/03/28 09:23:30;;;;;;;4.40;2.58;;;11.30;99.90;;;;;;5071965;28;20181;-80
2021/03/28 09:26:14;;;;;;;6.97;2.55;;;11.50;99.90;;;;;;5019136;28;20485;-80
2021/03/28 09:29:10;;;;;;;8.20;2.78;;;11.70;99.90;;;;;;5032438;28;20038;-80
2021/03/28 09:31:41;;;;;;;5.80;2.33;;;11.90;99.90;;;;;;5031704;28;20034;-80
2021/03/28 09:34:40;;;;;;;5.72;2.63;;;12.10;99.90;;;;;;5015774;28;20021;-80
2021/03/28 09:37:27;;;;;;;4.53;2.10;;;12.60;99.90;;;;;;5032355;28;20033;-80
2021/03/28 09:40:06;;;;;;;5.05;2.00;;;13.60;99.90;;;;;;5018452;28;20072;-80
2021/03/28 09:42:40;;;;;;;5.30;1.75;;;17.50;99.90;;;;;;5032063;28;20033;-80
2021/03/28 09:45:26;;;;;;;4.85;2.00;;;23.20;99.90;;;;;;5015091;28;20025;-80
2021/03/28 09:48:03;;;;;;;4.55;2.40;;;27.30;99.90;;;;;;5017707;28;20029;-80
2021/03/28 09:50:52;;;;;;;6.97;3.50;;;29.10;99.90;;;;;;5020824;28;20087;-80
2021/03/28 09:53:32;;;;;;;5.45;3.42;;;28.90;99.90;;;;;;5029107;28;20484;-80
2021/03/28 09:56:22;;;;;;;6.55;3.05;;;27.50;99.90;;;;;;5031984;28;20501;-80
2021/03/28 09:59:09;;;;;;;5.78;2.95;;;28.40;99.90;;;;;;5031412;28;20095;-79
2021/03/28 10:02:13;;;;;;;5.47;2.88;;;31.40;99.90;;;;;;5029243;28;20052;-79
2021/03/28 10:04:38;;;;;;;5.72;2.70;;;31.10;99.90;;;;;;5046796;28;20039;-79
2021/03/28 10:07:06;;;;;;;3.22;1.98;;;30.50;99.90;;;;;;5071334;28;20123;-79
2021/03/28 10:09:42;;;;;;;3.75;2.47;;;31.10;99.90;;;;;;5071170;28;20021;-79
2021/03/28 10:12:24;;;;;;;3.75;2.10;;;33.30;99.90;;;;;;5071557;28;20186;-79
2021/03/28 10:15:05;;;;;;;3.60;1.70;;;34.30;99.90;;;;;;5071177;28;20070;-79
2021/03/28 10:17:56;;;;;;;5.95;1.92;;;34.30;99.90;;;;;;5071020;28;20032;-79
2021/03/28 10:20:43;;;;;;;3.30;1.42;;;34.60;99.90;;;;;;5054054;28;20122;-79
2021/03/28 10:23:30;;;;;;;3.25;1.77;;;34.20;99.90;;;;;;5070972;28;20044;-79
2021/03/28 10:26:14;;;;;;;3.42;1.83;;;32.90;99.90;;;;;;5057029;28;20048;-79
2021/03/28 10:28:53;;;;;;;5.18;2.58;;;33.10;99.90;;;;;;5070787;28;20508;-79
2021/03/28 10:31:22;;;;;;;3.63;2.25;;;31.70;99.90;;;;;;5089549;28;20162;-79
2021/03/28 10:34:05;;;;;;;4.95;2.33;;;31.80;99.90;;;;;;5077566;28;20016;-79
2021/03/28 10:37:05;;;;;;;3.35;2.25;;;31.40;99.90;;;;;;5093124;28;20538;-79
2021/03/28 10:39:54;;;;;;;3.85;2.42;;;31.30;99.90;;;;;;5070012;28;20032;-79
2021/03/28 10:42:41;;;;;;;4.75;2.33;;;31.90;99.90;;;;;;4990943;28;20561;-79
2021/03/28 10:45:31;;;;;;;4.22;2.28;;;33.10;99.90;;;;;;4978518;28;20549;-79
2021/03/28 10:48:09;;;;;;;3.58;2.13;;;33.80;99.90;;;;;;4992063;28;20502;-79
2021/03/28 10:51:26;;;;;;;3.35;2.25;;;34.50;99.90;;;;;;4991650;28;20034;-79
2021/03/28 10:54:19;;;;;;;6.15;4.13;;;34.60;99.90;;;;;;4959458;28;20034;-79
2021/03/28 10:57:23;;;;;;;3.88;2.55;;;33.90;99.90;;;;;;4971946;28;20129;-79
2021/03/28 10:59:59;;;;;;;6.65;2.53;;;34.30;99.90;;;;;;4972256;28;20034;-79
2021/03/28 11:02:58;;;;;;;12.73;10.80;;;36.80;99.90;;;;;;4971969;28;20117;-79
2021/03/28 11:05:27;;;;;;;5.10;4.00;;;37.00;99.90;;;;;;4972260;28;20019;-79
2021/03/28 11:08:37;;;;;;;3.42;2.55;;;36.10;99.90;;;;;;4991087;28;20027;-79
2021/03/28 11:11:11;;;;;;;6.53;5.30;;;36.70;99.90;;;;;;4977385;28;20041;-79
2021/03/28 11:14:17;;;;;;;3.53;2.70;;;37.00;99.90;;;;;;4990968;28;20511;-79
2021/03/28 11:16:54;;;;;;;5.80;4.65;;;36.30;99.90;;;;;;5003828;28;20092;-79
2021/03/28 11:19:56;;;;;;;3.40;2.63;;;36.50;99.90;;;;;;5059606;28;20048;-79
2021/03/28 11:22:44;;;;;;;4.30;2.47;;;37.50;99.90;;;;;;5092512;28;20484;-79
2021/03/28 11:25:17;;;;;;;4.90;2.70;;;37.60;99.90;;;;;;5078796;28;20121;-79
2021/03/28 11:27:54;;;;;;;3.72;2.60;;;38.30;99.90;;;;;;5092233;28;20028;-79
2021/03/28 11:31:07;;;;;;;6.28;3.08;;;37.90;99.90;;;;;;5092733;28;20103;-79
2021/03/28 11:33:42;;;;;;;4.18;2.45;;;37.90;99.90;;;;;;5039568;28;20029;-79
2021/03/28 11:36:20;;;;;;;4.97;2.50;;;37.60;99.90;;;;;;5050100;28;20033;-79
2021/03/28 11:39:13;;;;;;;4.28;2.55;;;37.00;99.90;;;;;;5049591;28;20037;-79
2021/03/28 11:41:55;;;;;;;3.63;2.70;;;36.70;99.90;;;;;;5049535;28;20102;-79
2021/03/28 11:44:32;;;;;;;5.05;2.80;;;37.50;99.90;;;;;;5050158;28;20025;-79
2021/03/28 11:47:13;;;;;;;4.43;2.65;;;38.20;99.90;;;;;;5034302;28;20035;-79
2021/03/28 11:49:58;;;;;;;5.20;2.20;;;37.60;99.90;;;;;;5049608;28;20635;-79
2021/03/28 11:52:47;;;;;;;3.92;2.67;;;38.70;99.90;;;;;;5049898;28;20032;-80
2021/03/28 11:55:20;;;;;;;3.95;2.72;;;38.00;99.90;;;;;;5049707;28;20033;-80
2021/03/28 11:58:07;;;;;;;4.35;2.35;;;37.60;99.90;;;;;;5049757;28;20037;-79
2021/03/28 12:00:41;;;;;;;4.20;2.47;;;38.30;99.90;;;;;;5049801;28;20033;-79
2021/03/28 12:03:19;;;;;;;3.45;2.40;;;38.60;99.90;;;;;;5049894;28;20099;-79
2021/03/28 12:06:05;;;;;;;3.28;2.50;;;37.90;99.90;;;;;;5049757;28;20514;-79
2021/03/28 12:08:56;;;;;;;5.72;2.55;;;37.10;99.90;;;;;;5064231;28;20579;-79
2021/03/28 12:11:47;;;;;;;2.92;2.28;;;35.60;99.90;;;;;;5078964;28;20016;-81
2021/03/28 12:14:12;;;;;;;4.68;2.60;;;35.60;99.90;;;;;;5093834;28;20384;-81
2021/03/28 12:17:09;;;;;;;3.58;2.47;;;35.50;99.90;;;;;;5094661;28;20085;-81
2021/03/28 12:19:50;;;;;;;3.72;2.80;;;35.40;99.90;;;;;;5095881;28;20074;-81
2021/03/28 12:22:20;;;;;;;5.20;2.47;;;36.20;99.90;;;;;;5096118;28;20039;-81
2021/03/28 12:24:56;;;;;;;3.42;2.10;;;36.30;99.90;;;;;;5095441;28;20020;-81
2021/03/28 12:27:35;;;;;;;4.95;2.45;;;36.10;99.90;;;;;;5096016;28;20024;-81
2021/03/28 12:30:03;;;;;;;4.00;2.40;;;35.80;99.90;;;;;;5094828;28;20380;-81
2021/03/28 12:33:07;;;;;;;5.05;2.45;;;35.10;99.90;;;;;;5094696;28;20456;-80
2021/03/28 12:35:47;;;;;;;3.55;2.50;;;36.10;99.90;;;;;;5088789;28;20058;-80
2021/03/28 12:38:28;;;;;;;3.63;2.25;;;36.60;99.90;;;;;;5094318;28;20032;-80
2021/03/28 12:41:12;;;;;;;2.55;2.10;;;36.60;99.90;;;;;;5095427;28;21449;-80
2021/03/28 12:43:48;;;;;;;3.55;2.20;;;36.00;99.90;;;;;;5095751;28;20103;-80
2021/03/28 12:46:47;;;;;;;3.92;2.28;;;36.00;99.90;;;;;;5095784;28;20024;-80
2021/03/28 12:49:23;;;;;;;5.15;2.33;;;35.90;99.90;;;;;;5058324;28;20028;-80
2021/03/28 12:52:12;;;;;;;2.55;1.98;;;35.40;99.90;;;;;;5073099;28;20078;-80
2021/03/28 12:55:21;;;;;;;5.95;2.90;;;35.20;99.90;;;;;;5060328;28;20084;-80
2021/03/28 12:57:54;;;;;;;4.80;2.22;;;35.80;99.90;;;;;;5013038;28;20113;-80
2021/03/28 13:00:41;;;;;;;3.80;2.33;;;35.90;99.90;;;;;;5013408;28;20133;-80
2021/03/28 13:03:31;;;;;;;4.32;2.53;;;35.80;99.90;;;;;;4981434;28;20041;-80
2021/03/28 13:06:03;;;;;;;3.70;2.20;;;35.70;99.90;;;;;;5012660;28;20426;-81
2021/03/28 13:09:01;;;;;;;5.40;2.30;;;34.70;99.90;;;;;;4996040;28;20080;-81
2021/03/28 13:11:47;;;;;;;4.35;2.47;;;34.60;99.90;;;;;;4995395;28;20056;-81
2021/03/28 13:14:34;;;;;;;5.82;2.63;;;33.00;99.90;;;;;;5006066;28;20092;-81
2021/03/28 13:17:06;;;;;;;4.70;2.42;;;33.60;99.90;;;;;;5012505;28;20084;-80
2021/03/28 13:19:36;;;;;;;4.07;2.63;;;33.60;99.90;;;;;;5012491;28;20104;-80
2021/03/28 13:22:23;;;;;;;3.92;2.10;;;33.40;99.90;;;;;;5011770;28;20050;-80
2021/03/28 13:24:50;;;;;;;6.57;2.67;;;33.30;99.90;;;;;;5014247;28;20469;-80
2021/03/28 13:27:20;;;;;;;3.08;2.30;;;32.50;99.90;;;;;;5052198;28;20090;-80
2021/03/28 13:29:55;;;;;;;3.25;2.20;;;32.80;99.90;;;;;;5051965;28;20032;-81
2021/03/28 13:32:27;;;;;;;3.80;2.40;;;32.10;99.90;;;;;;5052247;28;20037;-81
2021/03/28 13:35:00;;;;;;;4.25;2.35;;;31.30;99.90;;;;;;5073465;28;20060;-81
2021/03/28 13:37:30;;;;;;;4.70;2.33;;;31.90;99.90;;;;;;5094160;28;20098;-81
2021/03/28 13:40:11;;;;;;;2.80;2.28;;;31.20;99.90;;;;;;5094280;28;20024;-81
2021/03/28 13:42:47;;;;;;;3.63;2.30;;;31.90;99.90;;;;;;5094473;28;20035;-81
2021/03/28 13:45:19;;;;;;;4.07;2.50;;;30.20;99.90;;;;;;5086418;28;20028;-80
2021/03/28 13:48:10;;;;;;;2.95;2.25;;;30.60;99.90;;;;;;5094114;28;20115;-80
2021/03/28 13:50:35;;;;;;;3.30;2.25;;;30.30;99.90;;;;;;5094133;28;20476;-80
2021/03/28 13:53:24;;;;;;;4.18;2.50;;;30.40;99.90;;;;;;5093812;28;20032;-80
2021/03/28 13:56:23;;;;;;;5.18;2.42;;;30.60;99.90;;;;;;5093572;28;20028;-80
2021/03/28 13:59:02;;;;;;;3.53;2.20;;;30.80;99.90;;;;;;5094027;28;20089;-80
2021/03/28 14:01:45;;;;;;;3.53;2.45;;;30.50;99.90;;;;;;5087772;28;20085;-80
2021/03/28 14:04:32;;;;;;;2.88;2.10;;;30.30;99.90;;;;;;5093679;28;20069;-80
2021/03/28 14:07:14;;;;;;;3.90;2.05;;;30.50;99.90;;;;;;5093192;28;20054;-80
2021/03/28 14:10:14;;;;;;;3.22;2.05;;;30.10;99.90;;;;;;5093837;28;20031;-80
2021/03/28 14:13:12;;;;;;;2.67;1.88;;;29.70;99.90;;;;;;5079876;28;20064;-80
2021/03/28 14:15:40;;;;;;;4.10;2.22;;;29.30;99.90;;;;;;5088681;28;20023;-80
2021/03/28 14:18:14;;;;;;;2.70;1.85;;;28.90;99.90;;;;;;5093512;28;20028;-80
2021/03/28 14:20:45;;;;;;;3.70;2.40;;;29.10;99.90;;;;;;5093182;28;20528;-80
2021/03/28 14:23:11;;;;;;;4.40;2.50;;;29.00;99.90;;;;;;5093021;28;20101;-81
2021/03/28 14:25:40;;;;;;;4.50;2.60;;;29.20;99.90;;;;;;5093520;28;20483;-81
2021/03/28 14:28:27;;;;;;;4.55;2.25;;;29.20;99.90;;;;;;5093100;28;20092;-81